Time;durP1;ratioP1;P1;durP2;ratioP2;P2;SDS_P1;SDS_P2;PMS_P1;PMS_P2;Temp;Humidity;BMP_temperature;BMP_pressure;BME280_temperature;BME280_humidity;BME280_pressure;Samples;Min_cycle;Max_cycle;Signal;HPM_P1;HPM_P2
2022/01/30 00:01:10;;;;;;;;;;;10.20;99.90;;;;;;5015468;28;19988;-65
2022/01/30 00:03:35;;;;;;;;;;;10.20;99.90;;;;;;5022084;28;19992;-65
2022/01/30 00:06:01;;;;;;;;;;;10.20;99.90;;;;;;5022765;28;19987;-65
2022/01/30 00:08:26;;;;;;;;;;;10.20;99.90;;;;;;5017265;28;19909;-62
2022/01/30 00:10:58;;;;;;;;;;;10.20;99.90;;;;;;5017131;28;19996;-64
2022/01/30 00:13:26;;;;;;;;;;;10.20;99.90;;;;;;5015623;28;19929;-62
2022/01/30 00:15:54;;;;;;;;;;;10.10;99.90;;;;;;5018817;28;19924;-63
2022/01/30 00:21:30;;;;;;;;;;;10.10;99.90;;;;;;5083514;23;19933;-63
2022/01/30 00:24:07;;;;;;;;;;;10.10;99.90;;;;;;5072012;28;19909;-62
2022/01/30 00:26:35;;;;;;;;;;;10.10;99.90;;;;;;5069879;28;19909;-61
2022/01/30 00:29:01;;;;;;;;;;;10.10;99.90;;;;;;5070634;28;19917;-63
2022/01/30 00:31:27;;;;;;;;;;;10.10;99.90;;;;;;5071409;28;19919;-60
2022/01/30 00:33:53;;;;;;;;;;;10.20;99.90;;;;;;5071520;28;19916;-62
2022/01/30 00:36:19;;;;;;;;;;;10.20;99.90;;;;;;5071345;28;19916;-62
2022/01/30 00:38:44;;;;;;;;;;;10.20;99.90;;;;;;5071543;28;19944;-61
2022/01/30 00:41:10;;;;;;;;;;;10.20;99.90;;;;;;5071000;28;20283;-59
2022/01/30 00:43:35;;;;;;;;;;;10.20;99.90;;;;;;5071088;28;19943;-62
2022/01/30 00:46:01;;;;;;;;;;;10.20;99.90;;;;;;5071460;28;19920;-62
2022/01/30 00:48:26;;;;;;;;;;;10.20;99.90;;;;;;5071306;28;19913;-60
2022/01/30 00:50:52;;;;;;;;;;;10.20;99.90;;;;;;5071683;28;19970;-61
2022/01/30 00:53:18;;;;;;;;;;;10.20;99.90;;;;;;5070504;28;19916;-60
2022/01/30 00:55:43;;;;;;;;;;;10.20;99.90;;;;;;5070790;28;19917;-61
2022/01/30 00:58:09;;;;;;;;;;;10.20;99.90;;;;;;5070721;28;19916;-61
2022/01/30 01:00:36;;;;;;;;;;;10.20;99.90;;;;;;5070636;28;20400;-62
2022/01/30 01:03:02;;;;;;;;;;;10.10;99.90;;;;;;5071381;28;20003;-62
2022/01/30 01:05:29;;;;;;;;;;;10.00;99.90;;;;;;5071374;28;20010;-59
2022/01/30 01:07:58;;;;;;;;;;;10.00;99.90;;;;;;5070748;28;19939;-59
2022/01/30 01:13:06;;;;;;;;;;;9.80;99.90;;;;;;5070510;28;20026;-61
2022/01/30 01:23:47;;;;;;;;;;;9.80;99.90;;;;;;5071022;28;19943;-61
2022/01/30 01:26:13;;;;;;;;;;;9.70;99.90;;;;;;5070813;28;19909;-61
2022/01/30 01:28:38;;;;;;;;;;;9.70;99.90;;;;;;5068707;28;19958;-59
2022/01/30 01:31:04;;;;;;;;;;;9.70;99.90;;;;;;5070079;28;19920;-61
2022/01/30 01:33:45;;;;;;;;;;;9.70;99.90;;;;;;5070621;28;19948;-60
2022/01/30 01:36:12;;;;;;;;;;;9.60;99.90;;;;;;5070222;28;19954;-60
2022/01/30 01:38:37;;;;;;;;;;;9.60;99.90;;;;;;5071406;28;20022;-61
2022/01/30 01:41:03;;;;;;;;;;;9.60;99.90;;;;;;5064819;28;20376;-62
2022/01/30 01:43:30;;;;;;;;;;;9.60;99.90;;;;;;5070490;28;19913;-61
2022/01/30 01:45:57;;;;;;;;;;;9.60;99.90;;;;;;5069999;28;19912;-60
2022/01/30 01:48:23;;;;;;;;;;;9.60;99.90;;;;;;5054429;28;19920;-61
2022/01/30 01:51:05;;;;;;;;;;;9.60;99.90;;;;;;5071065;28;19916;-61
2022/01/30 01:53:32;;;;;;;;;;;9.50;99.90;;;;;;5070633;28;19913;-61
2022/01/30 01:55:57;;;;;;;;;;;9.60;99.90;;;;;;5069942;28;19916;-59
2022/01/30 01:58:24;;;;;;;;;;;9.50;99.90;;;;;;5070372;28;20335;-61
2022/01/30 02:00:50;;;;;;;;;;;9.50;99.90;;;;;;5069961;28;19962;-60
2022/01/30 02:03:17;;;;;;;;;;;9.50;99.90;;;;;;5072041;28;19916;-60
2022/01/30 02:05:47;;;;;;;;;;;9.50;99.90;;;;;;5074452;28;20325;-60
2022/01/30 02:24:28;;;;;;;;;;;9.70;99.90;;;;;;5053845;28;19919;-61
2022/01/30 02:26:53;;;;;;;;;;;9.70;99.90;;;;;;5051027;28;19908;-60
2022/01/30 02:29:20;;;;;;;;;;;9.80;99.90;;;;;;5053347;28;19920;-62
2022/01/30 02:31:45;;;;;;;;;;;9.80;99.90;;;;;;5053265;28;19916;-62
2022/01/30 02:34:11;;;;;;;;;;;9.80;99.90;;;;;;5053183;28;19919;-61
2022/01/30 02:36:49;;;;;;;;;;;9.80;99.90;;;;;;5053611;28;19917;-60
2022/01/30 02:39:15;;;;;;;;;;;9.80;99.90;;;;;;5053577;28;19928;-59
2022/01/30 02:41:41;;;;;;;;;;;9.80;99.90;;;;;;5053739;28;19913;-62
2022/01/30 02:44:30;;;;;;;;;;;9.80;99.90;;;;;;5052923;28;19917;-63
2022/01/30 02:46:59;;;;;;;;;;;9.70;99.90;;;;;;5052450;28;19921;-59
2022/01/30 02:49:30;;;;;;;;;;;9.80;99.90;;;;;;5052809;28;20001;-61
2022/01/30 02:52:02;;;;;;;;;;;9.80;99.90;;;;;;5053698;28;19921;-62
2022/01/30 02:54:29;;;;;;;;;;;9.90;99.90;;;;;;5037894;28;20051;-60
2022/01/30 02:56:54;;;;;;;;;;;9.90;99.90;;;;;;5053421;28;20425;-62
2022/01/30 02:59:20;;;;;;;;;;;9.90;99.90;;;;;;5052976;28;20035;-62
2022/01/30 03:01:46;;;;;;;;;;;9.90;99.90;;;;;;5052706;28;20050;-60
2022/01/30 03:04:11;;;;;;;;;;;9.90;99.90;;;;;;5034727;28;20011;-62
2022/01/30 03:06:37;;;;;;;;;;;9.80;99.90;;;;;;5052939;28;20274;-61
2022/01/30 03:09:04;;;;;;;;;;;9.80;99.90;;;;;;5052869;28;19924;-61
2022/01/30 03:11:29;;;;;;;;;;;9.80;99.90;;;;;;5053272;28;19975;-59
2022/01/30 03:13:55;;;;;;;;;;;9.80;99.90;;;;;;5052315;28;20377;-61
2022/01/30 03:16:23;;;;;;;;;;;9.80;99.90;;;;;;5052860;28;20327;-61
2022/01/30 03:18:49;;;;;;;;;;;9.80;99.90;;;;;;5052822;28;19913;-61
2022/01/30 03:21:15;;;;;;;;;;;9.80;99.90;;;;;;5072712;28;20011;-62
2022/01/30 03:23:40;;;;;;;;;;;9.80;99.90;;;;;;5073369;28;19991;-63
2022/01/30 03:26:06;;;;;;;;;;;9.90;99.90;;;;;;5072408;28;19917;-60
2022/01/30 03:28:32;;;;;;;;;;;9.80;99.90;;;;;;5072542;28;19920;-62
2022/01/30 03:31:02;;;;;;;;;;;9.80;99.90;;;;;;5072365;28;20618;-61
2022/01/30 03:33:28;;;;;;;;;;;9.80;99.90;;;;;;5072477;28;19921;-60
2022/01/30 03:35:54;;;;;;;;;;;9.90;99.90;;;;;;5058769;28;19912;-60
2022/01/30 03:38:20;;;;;;;;;;;9.90;99.90;;;;;;5072278;28;19913;-63
2022/01/30 03:40:46;;;;;;;;;;;9.90;99.90;;;;;;5071742;28;19924;-61
2022/01/30 03:43:11;;;;;;;;;;;9.90;99.90;;;;;;5072281;28;19916;-62
2022/01/30 03:45:37;;;;;;;;;;;9.80;99.90;;;;;;5072445;28;19920;-61
2022/01/30 03:48:03;;;;;;;;;;;9.80;99.90;;;;;;5072001;28;19919;-62
2022/01/30 03:50:29;;;;;;;;;;;9.80;99.90;;;;;;5072755;28;20007;-60
2022/01/30 03:52:54;;;;;;;;;;;9.80;99.90;;;;;;5071582;28;19913;-61
2022/01/30 03:55:21;;;;;;;;;;;9.70;99.90;;;;;;5071558;28;19919;-61
2022/01/30 03:57:46;;;;;;;;;;;9.80;99.90;;;;;;5072101;28;19912;-62
2022/01/30 04:00:12;;;;;;;;;;;9.80;99.90;;;;;;5071836;28;19913;-62
2022/01/30 04:02:38;;;;;;;;;;;9.80;99.90;;;;;;5072142;28;19908;-62
2022/01/30 04:05:03;;;;;;;;;;;9.80;99.90;;;;;;5071883;28;19946;-62
2022/01/30 04:07:30;;;;;;;;;;;9.90;99.90;;;;;;5071260;28;19919;-60
2022/01/30 04:09:56;;;;;;;;;;;9.90;99.90;;;;;;5071447;28;19924;-61
2022/01/30 04:12:22;;;;;;;;;;;9.80;99.90;;;;;;5071519;28;20277;-61
2022/01/30 04:14:47;;;;;;;;;;;9.80;99.90;;;;;;5072677;28;20301;-61
2022/01/30 04:17:14;;;;;;;;;;;9.80;99.90;;;;;;5070934;28;20315;-63
2022/01/30 04:19:40;;;;;;;;;;;9.80;99.90;;;;;;5070766;28;19927;-61
2022/01/30 04:22:05;;;;;;;;;;;9.80;99.90;;;;;;5071481;28;19920;-61
2022/01/30 04:24:31;;;;;;;;;;;9.80;99.90;;;;;;5072298;28;19913;-61
2022/01/30 04:26:57;;;;;;;;;;;9.80;99.90;;;;;;5071486;28;20433;-60
2022/01/30 04:29:22;;;;;;;;;;;9.80;99.90;;;;;;5071127;28;19917;-62
2022/01/30 04:31:49;;;;;;;;;;;9.70;99.90;;;;;;5071066;28;19995;-60
2022/01/30 04:34:15;;;;;;;;;;;9.50;99.90;;;;;;5071564;28;20395;-61
2022/01/30 04:36:54;;;;;;;;;;;9.40;99.90;;;;;;5071221;28;19935;-63
2022/01/30 05:00:47;;;;;;;;;;;8.90;99.90;;;;;;5070803;28;19908;-61
2022/01/30 05:08:18;;;;;;;;;;;9.00;99.90;;;;;;5070920;28;19921;-62
2022/01/30 05:10:44;;;;;;;;;;;8.90;99.90;;;;;;5070699;28;19920;-60
2022/01/30 05:13:14;;;;;;;;;;;8.90;99.90;;;;;;5070722;28;19912;-62
2022/01/30 05:15:40;;;;;;;;;;;8.80;99.90;;;;;;5070508;28;19912;-61
2022/01/30 05:18:05;;;;;;;;;;;8.70;99.90;;;;;;5070865;28;19914;-61
2022/01/30 05:20:32;;;;;;;;;;;8.70;99.90;;;;;;5069445;28;19921;-62
2022/01/30 05:22:58;;;;;;;;;;;8.60;99.90;;;;;;5075271;28;19912;-61
2022/01/30 05:25:24;;;;;;;;;;;8.60;99.90;;;;;;5074775;28;19920;-63
2022/01/30 05:27:49;;;;;;;;;;;8.70;99.90;;;;;;5073838;28;19912;-62
2022/01/30 05:30:15;;;;;;;;;;;8.60;99.90;;;;;;5071275;28;20597;-62
2022/01/30 05:32:40;;;;;;;;;;;8.60;99.90;;;;;;5076307;28;20031;-62
2022/01/30 05:35:06;;;;;;;;;;;8.60;99.90;;;;;;5074767;28;19913;-62
2022/01/30 05:37:32;;;;;;;;;;;8.60;99.90;;;;;;5073782;28;19913;-63
2022/01/30 05:39:58;;;;;;;;;;;8.60;99.90;;;;;;5075049;28;19973;-62
2022/01/30 05:42:26;;;;;;;;;;;8.60;99.90;;;;;;5070374;28;19913;-62
2022/01/30 05:47:30;;;;;;;;;;;8.60;99.90;;;;;;5075349;28;19954;-63
2022/01/30 05:49:55;;;;;;;;;;;8.60;99.90;;;;;;5074828;28;19938;-62
2022/01/30 05:52:24;;;;;;;;;;;8.60;99.90;;;;;;5074699;28;19919;-60
2022/01/30 05:54:50;;;;;;;;;;;8.60;99.90;;;;;;5073678;28;19950;-61
2022/01/30 05:57:15;;;;;;;;;;;8.60;99.90;;;;;;5068774;28;19963;-61
2022/01/30 05:59:41;;;;;;;;;;;8.60;99.90;;;;;;5075307;28;20003;-61
2022/01/30 06:02:06;;;;;;;;;;;8.60;99.90;;;;;;5074566;28;19973;-62
2022/01/30 06:04:32;;;;;;;;;;;8.60;99.90;;;;;;5074465;28;20342;-63
2022/01/30 06:06:59;;;;;;;;;;;8.60;99.90;;;;;;5075386;28;19919;-60
2022/01/30 06:09:25;;;;;;;;;;;8.70;99.90;;;;;;5070241;28;19962;-62
2022/01/30 06:11:50;;;;;;;;;;;8.70;99.90;;;;;;5052425;28;20261;-62
2022/01/30 06:14:20;;;;;;;;;;;8.70;99.90;;;;;;5074763;28;19935;-61
2022/01/30 06:16:45;;;;;;;;;;;8.70;99.90;;;;;;5074483;28;19997;-61
2022/01/30 06:19:11;;;;;;;;;;;8.70;99.90;;;;;;5074523;28;20398;-63
2022/01/30 06:21:36;;;;;;;;;;;8.70;99.90;;;;;;5071490;28;20362;-63
2022/01/30 06:24:02;;;;;;;;;;;8.70;99.90;;;;;;5073333;28;19915;-62
2022/01/30 06:26:28;;;;;;;;;;;8.70;99.90;;;;;;5074670;28;19913;-61
2022/01/30 06:28:54;;;;;;;;;;;8.70;99.90;;;;;;5074293;28;19920;-60
2022/01/30 06:31:19;;;;;;;;;;;8.60;99.90;;;;;;5056190;28;19927;-60
2022/01/30 06:33:44;;;;;;;;;;;8.60;99.90;;;;;;5073120;28;19916;-62
2022/01/30 06:36:10;;;;;;;;;;;8.60;99.90;;;;;;5071545;28;20003;-62
2022/01/30 06:38:36;;;;;;;;;;;8.50;99.90;;;;;;5074839;28;19912;-62
2022/01/30 06:41:01;;;;;;;;;;;8.50;99.90;;;;;;5073876;28;20372;-62
2022/01/30 06:43:27;;;;;;;;;;;8.50;99.90;;;;;;5074246;28;19913;-62
2022/01/30 06:45:52;;;;;;;;;;;8.60;99.90;;;;;;5073851;28;19912;-61
2022/01/30 06:48:18;;;;;;;;;;;8.60;99.90;;;;;;5052770;28;19935;-61
2022/01/30 06:50:44;;;;;;;;;;;8.60;99.90;;;;;;5078283;28;19908;-61
2022/01/30 06:53:10;;;;;;;;;;;8.60;99.90;;;;;;5078262;28;19983;-61
2022/01/30 06:55:38;;;;;;;;;;;8.60;99.90;;;;;;5077504;28;19969;-62
2022/01/30 06:58:03;;;;;;;;;;;8.70;99.90;;;;;;5077476;28;19912;-61
2022/01/30 07:00:29;;;;;;;;;;;8.60;99.90;;;;;;5074019;28;19923;-60
2022/01/30 07:02:55;;;;;;;;;;;8.60;99.90;;;;;;5078880;28;19915;-60
2022/01/30 07:05:20;;;;;;;;;;;8.50;99.90;;;;;;5077628;28;20485;-61
2022/01/30 07:07:46;;;;;;;;;;;8.50;99.90;;;;;;5077353;28;20042;-61
2022/01/30 07:10:11;;;;;;;;;;;8.50;99.90;;;;;;5077386;28;20384;-61
2022/01/30 07:12:37;;;;;;;;;;;8.40;99.90;;;;;;5074643;28;19916;-61
2022/01/30 07:15:03;;;;;;;;;;;8.40;99.90;;;;;;5058032;28;20001;-64
2022/01/30 07:17:28;;;;;;;;;;;8.40;99.90;;;;;;5077874;28;20054;-61
2022/01/30 07:19:54;;;;;;;;;;;8.40;99.90;;;;;;5076517;28;20300;-61
2022/01/30 07:22:19;;;;;;;;;;;8.40;99.90;;;;;;5077168;28;20378;-60
2022/01/30 07:24:45;;;;;;;;;;;8.30;99.90;;;;;;5075176;28;20337;-62
2022/01/30 07:27:10;;;;;;;;;;;8.30;99.90;;;;;;5073862;28;19908;-60
2022/01/30 07:29:36;;;;;;;;;;;8.20;99.90;;;;;;5074917;28;20027;-62
2022/01/30 07:32:02;;;;;;;;;;;8.20;99.90;;;;;;5064977;28;19920;-60
2022/01/30 07:34:27;;;;;;;;;;;8.30;99.90;;;;;;5062048;28;20327;-62
2022/01/30 07:36:56;;;;;;;;;;;8.40;99.90;;;;;;5068468;28;19913;-68
2022/01/30 07:39:26;;;;;;;;;;;8.30;99.90;;;;;;5064765;28;19952;-67
2022/01/30 07:41:52;;;;;;;;;;;8.40;99.90;;;;;;5069127;28;19940;-62
2022/01/30 07:44:18;;;;;;;;;;;8.40;99.90;;;;;;5069291;28;19959;-61
2022/01/30 07:46:43;;;;;;;;;;;8.40;99.90;;;;;;5069253;28;19955;-63
2022/01/30 07:49:09;;;;;;;;;;;8.40;99.90;;;;;;5066362;28;19921;-62
2022/01/30 07:51:35;;;;;;;;;;;8.20;99.90;;;;;;5068907;28;19913;-61
2022/01/30 07:54:00;;;;;;;;;;;8.20;99.90;;;;;;5050335;28;19916;-61
2022/01/30 07:56:26;;;;;;;;;;;8.20;99.90;;;;;;5069928;28;19920;-64
2022/01/30 07:58:51;;;;;;;;;;;8.30;99.90;;;;;;5069492;28;19909;-60
2022/01/30 08:01:17;;;;;;;;;;;8.30;99.90;;;;;;5067835;28;19920;-61
2022/01/30 08:03:42;;;;;;;;;;;8.20;99.90;;;;;;5062544;28;19973;-62
2022/01/30 08:06:08;;;;;;;;;;;8.20;99.90;;;;;;5067218;28;20445;-61
2022/01/30 08:08:33;;;;;;;;;;;8.20;99.90;;;;;;5068933;28;19920;-60
2022/01/30 08:10:59;;;;;;;;;;;8.20;99.90;;;;;;5051103;28;19923;-61
2022/01/30 08:13:24;;;;;;;;;;;8.10;99.90;;;;;;5066088;28;19962;-62
2022/01/30 08:15:50;;;;;;;;;;;8.10;99.90;;;;;;5068160;28;19916;-62
2022/01/30 08:18:15;;;;;;;;;;;8.10;99.90;;;;;;5069259;28;19921;-62
2022/01/30 08:20:42;;;;;;;;;;;8.10;99.90;;;;;;5061689;28;20019;-62
2022/01/30 08:23:12;;;;;;;;;;;8.10;99.90;;;;;;5060677;28;20314;-61
2022/01/30 08:25:38;;;;;;;;;;;8.20;99.90;;;;;;5067589;28;19958;-60
2022/01/30 08:28:04;;;;;;;;;;;8.20;99.90;;;;;;5067496;28;20281;-61
2022/01/30 08:30:29;;;;;;;;;;;8.20;99.90;;;;;;5068940;28;19973;-60
2022/01/30 08:32:55;;;;;;;;;;;8.20;99.90;;;;;;5069612;28;19916;-64
2022/01/30 08:35:21;;;;;;;;;;;8.20;99.90;;;;;;5068360;28;19919;-63
2022/01/30 08:37:47;;;;;;;;;;;8.30;99.90;;;;;;5067266;28;19912;-63
2022/01/30 08:40:17;;;;;;;;;;;8.30;99.90;;;;;;5048854;28;19973;-64
2022/01/30 08:42:43;;;;;;;;;;;8.20;99.90;;;;;;5064573;28;20391;-64
2022/01/30 08:45:09;;;;;;;;;;;8.00;99.90;;;;;;5067609;28;19912;-62
2022/01/30 08:47:35;;;;;;;;;;;8.00;99.90;;;;;;5069930;28;19913;-62
2022/01/30 08:50:01;;;;;;;;;;;8.00;99.90;;;;;;5067219;28;20015;-64
2022/01/30 08:52:26;;;;;;;;;;;8.00;99.90;;;;;;5050078;28;19966;-64
2022/01/30 08:54:52;;;;;;;;;;;8.00;99.90;;;;;;5067248;28;20006;-64
2022/01/30 08:57:18;;;;;;;;;;;8.00;99.90;;;;;;5067913;28;19912;-64
2022/01/30 08:59:43;;;;;;;;;;;8.00;99.90;;;;;;5051186;28;20342;-65
2022/01/30 09:02:09;;;;;;;;;;;8.00;99.90;;;;;;5066781;28;19999;-63
2022/01/30 09:04:34;;;;;;;;;;;8.00;99.90;;;;;;5067465;28;20357;-62
2022/01/30 09:07:00;;;;;;;;;;;8.10;99.90;;;;;;5066539;28;19912;-64
2022/01/30 09:09:26;;;;;;;;;;;8.00;99.90;;;;;;5067402;28;20397;-64
2022/01/30 09:11:51;;;;;;;;;;;7.90;99.90;;;;;;5068640;28;19951;-64
2022/01/30 09:14:17;;;;;;;;;;;7.80;99.90;;;;;;5066688;28;19912;-65
2022/01/30 09:16:44;;;;;;;;;;;7.80;99.90;;;;;;5065799;28;19965;-63
2022/01/30 09:19:09;;;;;;;;;;;7.80;99.90;;;;;;5067031;28;20380;-62
2022/01/30 09:21:35;;;;;;;;;;;7.80;99.90;;;;;;5067003;28;19935;-62
2022/01/30 09:24:00;;;;;;;;;;;7.90;99.90;;;;;;5068173;28;19912;-62
2022/01/30 09:26:26;;;;;;;;;;;7.90;99.90;;;;;;5067266;28;19927;-65
2022/01/30 09:28:51;;;;;;;;;;;7.90;99.90;;;;;;5067005;28;19964;-65
2022/01/30 09:31:17;;;;;;;;;;;7.90;99.90;;;;;;5042114;28;19919;-63
2022/01/30 09:33:43;;;;;;;;;;;7.90;99.90;;;;;;5050582;28;19913;-64
2022/01/30 09:36:08;;;;;;;;;;;7.90;99.90;;;;;;5066862;28;19912;-64
2022/01/30 09:38:34;;;;;;;;;;;7.90;99.90;;;;;;5068665;28;19916;-63
2022/01/30 09:40:59;;;;;;;;;;;8.00;99.90;;;;;;5066521;28;20391;-64
2022/01/30 09:43:29;;;;;;;;;;;8.00;99.90;;;;;;5067104;28;19913;-63
2022/01/30 09:45:55;;;;;;;;;;;8.00;99.90;;;;;;5066578;28;20546;-62
2022/01/30 09:48:22;;;;;;;;;;;8.00;99.90;;;;;;5066876;28;19916;-64
2022/01/30 09:50:49;;;;;;;;;;;8.00;99.90;;;;;;5068793;28;19916;-65
2022/01/30 09:53:15;;;;;;;;;;;8.00;99.90;;;;;;5065123;28;20454;-62
2022/01/30 09:55:40;;;;;;;;;;;8.10;99.90;;;;;;5067925;28;19913;-64
2022/01/30 09:58:07;;;;;;;;;;;8.10;99.90;;;;;;5066296;28;19927;-64
2022/01/30 10:00:34;;;;;;;;;;;8.10;99.90;;;;;;5066756;28;19919;-64
2022/01/30 10:02:59;;;;;;;;;;;8.10;99.90;;;;;;5068659;28;19913;-63
2022/01/30 10:05:25;;;;;;;;;;;8.10;99.90;;;;;;5066995;28;19912;-64
2022/01/30 10:07:53;;;;;;;;;;;8.10;99.90;;;;;;5066079;28;19916;-64
2022/01/30 10:10:23;;;;;;;;;;;8.20;99.90;;;;;;5066838;28;20002;-63
2022/01/30 10:13:07;;;;;;;;;;;8.20;99.90;;;;;;5067082;28;20265;-65
2022/01/30 10:15:53;;;;;;;;;;;8.10;99.90;;;;;;5047587;28;19919;-62
2022/01/30 10:18:19;;;;;;;;;;;8.10;99.90;;;;;;5065558;28;19927;-63
2022/01/30 10:20:45;;;;;;;;;;;8.10;99.90;;;;;;5068058;28;19925;-63
2022/01/30 10:23:11;;;;;;;;;;;8.10;99.90;;;;;;5066375;28;19916;-63
2022/01/30 10:25:39;;;;;;;;;;;8.20;99.90;;;;;;5069487;28;20058;-64
2022/01/30 10:28:07;;;;;;;;;;;8.20;99.90;;;;;;5073173;28;19924;-65
2022/01/30 10:30:39;;;;;;;;;;;8.20;99.90;;;;;;5069576;28;19924;-63
2022/01/30 10:33:05;;;;;;;;;;;8.30;99.90;;;;;;5070668;28;19974;-64
2022/01/30 10:35:44;;;;;;;;;;;8.30;99.90;;;;;;5071266;28;19913;-62
2022/01/30 10:38:17;;;;;;;;;;;8.20;99.90;;;;;;5070051;28;20043;-65
2022/01/30 10:40:50;;;;;;;;;;;8.30;99.90;;;;;;5062940;28;19917;-63
2022/01/30 10:43:16;;;;;;;;;;;8.30;99.90;;;;;;5066152;28;19920;-61
2022/01/30 10:45:41;;;;;;;;;;;8.30;99.90;;;;;;5062585;28;20299;-64
2022/01/30 10:48:11;;;;;;;;;;;8.30;99.90;;;;;;5063044;28;20031;-63
2022/01/30 10:50:38;;;;;;;;;;;8.30;99.90;;;;;;5071294;28;19916;-63
2022/01/30 10:53:04;;;;;;;;;;;8.40;99.90;;;;;;5062672;28;19955;-63
2022/01/30 10:55:41;;;;;;;;;;;8.30;99.90;;;;;;5067685;28;20372;-62
2022/01/30 10:58:07;;;;;;;;;;;8.30;99.90;;;;;;5060350;28;19975;-63
2022/01/30 11:00:46;;;;;;;;;;;8.40;99.90;;;;;;5062899;28;19927;-63
2022/01/30 11:03:31;;;;;;;;;;;8.40;99.90;;;;;;5061111;28;19913;-62
2022/01/30 11:05:58;;;;;;;;;;;8.40;99.90;;;;;;5062923;28;19923;-63
2022/01/30 11:08:24;;;;;;;;;;;8.40;99.90;;;;;;5063467;28;19960;-62
2022/01/30 11:11:07;;;;;;;;;;;8.40;99.90;;;;;;5063803;28;19924;-62
2022/01/30 11:13:33;;;;;;;;;;;8.40;99.90;;;;;;5067350;28;19916;-61
2022/01/30 11:18:51;;;;;;;;;;;8.50;99.90;;;;;;5066624;28;20442;-62
2022/01/30 11:21:22;;;;;;;;;;;8.50;99.90;;;;;;5060829;28;19936;-65
2022/01/30 11:23:49;;;;;;;;;;;8.50;99.90;;;;;;5053173;28;19916;-62
2022/01/30 11:26:16;;;;;;;;;;;8.50;99.90;;;;;;5061963;28;19921;-63
2022/01/30 11:28:41;;;;;;;;;;;8.60;99.90;;;;;;5062057;28;19913;-63
2022/01/30 11:31:07;;;;;;;;;;;8.60;99.90;;;;;;5065072;28;19942;-62
2022/01/30 11:33:33;;;;;;;;;;;8.60;99.90;;;;;;5061975;28;19921;-61
2022/01/30 11:35:59;;;;;;;;;;;8.60;99.90;;;;;;5063158;28;19916;-63
2022/01/30 11:38:25;;;;;;;;;;;8.60;99.90;;;;;;5063354;28;19917;-65
2022/01/30 11:41:09;;;;;;;;;;;8.60;99.90;;;;;;5063888;28;20349;-64
2022/01/30 11:43:35;;;;;;;;;;;8.70;99.90;;;;;;5066434;28;20000;-64
2022/01/30 11:46:14;;;;;;;;;;;8.70;99.90;;;;;;5063674;28;20011;-65
2022/01/30 11:48:39;;;;;;;;;;;8.70;99.90;;;;;;5067388;28;19916;-63
2022/01/30 11:51:05;;;;;;;;;;;8.80;99.90;;;;;;5059850;28;19974;-62
2022/01/30 11:53:31;;;;;;;;;;;8.90;99.90;;;;;;5062005;28;19920;-60
2022/01/30 11:56:00;;;;;;;;;;;9.00;99.90;;;;;;5062207;28;20035;-59
2022/01/30 11:58:57;;;;;;;;;;;9.00;99.90;;;;;;5063201;28;19917;-59
2022/01/30 12:01:25;;;;;;;;;;;9.00;99.90;;;;;;5064197;28;19924;-60
2022/01/30 12:03:54;;;;;;;;;;;9.00;99.90;;;;;;5061776;28;20388;-59
2022/01/30 12:06:19;;;;;;;;;;;9.00;99.90;;;;;;5047580;28;19920;-63
2022/01/30 12:08:48;;;;;;;;;;;8.90;99.90;;;;;;5063111;28;19913;-61
2022/01/30 12:11:47;;;;;;;;;;;9.00;99.90;;;;;;5061321;28;19920;-62
2022/01/30 12:14:21;;;;;;;;;;;8.90;99.90;;;;;;5046262;28;20305;-61
2022/01/30 12:16:48;;;;;;;;;;;9.10;99.90;;;;;;5060793;28;19939;-60
2022/01/30 12:19:16;;;;;;;;;;;9.20;99.90;;;;;;5064062;28;19974;-60
2022/01/30 12:21:42;;;;;;;;;;;9.40;99.90;;;;;;5056000;28;20380;-59
2022/01/30 12:24:23;;;;;;;;;;;9.50;99.90;;;;;;5061314;28;19973;-61
2022/01/30 12:26:50;;;;;;;;;;;9.50;99.90;;;;;;5061862;28;19935;-61
2022/01/30 12:29:33;;;;;;;;;;;9.60;99.90;;;;;;5059936;28;19921;-60
2022/01/30 12:32:19;;;;;;;;;;;9.60;99.90;;;;;;5060148;28;19916;-60
2022/01/30 12:34:44;;;;;;;;;;;9.60;99.90;;;;;;5054582;28;19913;-62
2022/01/30 12:37:17;;;;;;;;;;;9.50;99.90;;;;;;5064095;28;20278;-60
2022/01/30 12:39:43;;;;;;;;;;;9.50;99.90;;;;;;5058372;28;19938;-60
2022/01/30 12:42:13;;;;;;;;;;;9.50;99.90;;;;;;5061113;28;19916;-59
2022/01/30 12:44:38;;;;;;;;;;;9.50;99.90;;;;;;5061376;28;19917;-60
2022/01/30 12:47:04;;;;;;;;;;;9.50;99.90;;;;;;5060369;28;19928;-60
2022/01/30 12:49:32;;;;;;;;;;;9.50;99.90;;;;;;5066142;28;20478;-63
2022/01/30 12:52:01;;;;;;;;;;;9.40;99.90;;;;;;5062359;28;19912;-59
2022/01/30 12:54:36;;;;;;;;;;;9.40;99.90;;;;;;5065993;28;20671;-61
2022/01/30 12:57:02;;;;;;;;;;;9.50;99.90;;;;;;5060535;28;19955;-60
2022/01/30 12:59:28;;;;;;;;;;;9.50;99.90;;;;;;5060309;28;19975;-62
2022/01/30 13:02:01;;;;;;;;;;;9.50;99.90;;;;;;5061888;28;19917;-60
2022/01/30 13:04:26;;;;;;;;;;;9.60;99.90;;;;;;5062869;28;19916;-61
2022/01/30 13:06:52;;;;;;;;;;;9.60;99.90;;;;;;5061407;28;19922;-61
2022/01/30 13:09:21;;;;;;;;;;;9.70;99.90;;;;;;5059901;28;19933;-61
2022/01/30 13:11:46;;;;;;;;;;;9.80;99.90;;;;;;5062368;28;19919;-62
2022/01/30 13:14:12;;;;;;;;;;;9.90;99.90;;;;;;5060405;28;19921;-61
2022/01/30 13:16:42;;;;;;;;;;;9.90;99.90;;;;;;5064055;28;19913;-61
2022/01/30 13:19:09;;;;;;;;;;;9.90;99.90;;;;;;5062636;28;19986;-60
2022/01/30 13:21:35;;;;;;;;;;;9.90;99.90;;;;;;5066835;28;20578;-60
2022/01/30 13:24:01;;;;;;;;;;;9.80;99.90;;;;;;5060974;28;19939;-62
2022/01/30 13:26:37;;;;;;;;;;;9.80;99.90;;;;;;5060553;28;20004;-60
2022/01/30 13:29:05;;;;;;;;;;;9.70;99.90;;;;;;5065467;28;19921;-64
2022/01/30 13:31:31;;;;;;;;;;;9.70;99.70;;;;;;5063064;28;19919;-61
2022/01/30 13:34:16;;;;;;;;;;;9.70;99.90;;;;;;5061443;28;19924;-60
2022/01/30 13:36:42;;;;;;;;;;;9.60;99.90;;;;;;5062576;28;20403;-61
2022/01/30 13:39:13;;;;;;;;;;;9.60;99.90;;;;;;5059920;28;19947;-61
2022/01/30 13:41:59;;;;;;;;;;;9.60;99.90;;;;;;5061020;28;19912;-59
2022/01/30 13:44:26;;;;;;;;;;;9.50;99.90;;;;;;5059749;28;19913;-61
2022/01/30 13:46:57;;;;;;;;;;;9.50;99.90;;;;;;5061023;28;19921;-60
2022/01/30 13:49:23;;;;;;;;;;;9.50;99.90;;;;;;5063422;28;19927;-61
2022/01/30 13:52:02;;;;;;;;;;;9.50;99.60;;;;;;5060961;28;19912;-61
2022/01/30 13:54:28;;;;;;;;;;;9.40;99.90;;;;;;5064770;28;20436;-60
2022/01/30 13:57:03;;;;;;;;;;;9.40;99.30;;;;;;5061177;28;19912;-60
2022/01/30 13:59:29;;;;;;;;;;;9.30;99.60;;;;;;5062186;28;19916;-61
2022/01/30 14:01:58;;;;;;;;;;;9.30;99.90;;;;;;5064981;28;19978;-60
2022/01/30 14:04:24;;;;;;;;;;;9.30;99.90;;;;;;5067633;28;20003;-61
2022/01/30 14:06:50;;;;;;;;;;;9.40;99.90;;;;;;5064432;28;20027;-61
2022/01/30 14:09:19;;;;;;;;;;;9.30;99.90;;;;;;5062350;28;19920;-60
2022/01/30 14:11:51;;;;;;;;;;;9.30;99.90;;;;;;5069155;28;20014;-60
2022/01/30 14:14:20;;;;;;;;;;;9.30;99.90;;;;;;5069262;28;19921;-62
2022/01/30 14:16:48;;;;;;;;;;;9.30;99.90;;;;;;5052554;28;19912;-62
2022/01/30 14:19:17;;;;;;;;;;;9.30;99.40;;;;;;5070237;28;20316;-61
2022/01/30 14:21:42;;;;;;;;;;;9.20;99.90;;;;;;5067067;28;19912;-61
2022/01/30 14:24:15;;;;;;;;;;;9.20;99.90;;;;;;5070956;28;20274;-60
2022/01/30 14:26:41;;;;;;;;;;;9.30;99.90;;;;;;5071819;28;20385;-60
2022/01/30 14:29:14;;;;;;;;;;;9.20;99.90;;;;;;5069926;28;19954;-61
2022/01/30 14:31:52;;;;;;;;;;;9.20;99.90;;;;;;5069931;28;19912;-61
2022/01/30 14:34:18;;;;;;;;;;;9.20;99.90;;;;;;5068968;28;20084;-62
2022/01/30 14:36:47;;;;;;;;;;;9.20;99.60;;;;;;5070441;28;19948;-59
2022/01/30 14:39:12;;;;;;;;;;;9.20;99.90;;;;;;5070310;28;19912;-61
2022/01/30 14:41:38;;;;;;;;;;;9.20;99.90;;;;;;5071515;28;19912;-60
2022/01/30 14:44:04;;;;;;;;;;;9.20;99.90;;;;;;5070242;28;19920;-61
2022/01/30 14:46:30;;;;;;;;;;;9.20;99.90;;;;;;5052544;28;19917;-61
2022/01/30 14:48:55;;;;;;;;;;;9.20;99.90;;;;;;5069132;28;19924;-60
2022/01/30 14:51:21;;;;;;;;;;;9.20;99.90;;;;;;5069738;28;19920;-61
2022/01/30 14:53:46;;;;;;;;;;;9.30;99.90;;;;;;5070652;28;20416;-62
2022/01/30 14:56:12;;;;;;;;;;;9.30;99.90;;;;;;5063256;28;19962;-61
2022/01/30 14:58:37;;;;;;;;;;;9.30;99.90;;;;;;5069651;28;19961;-61
2022/01/30 15:01:03;;;;;;;;;;;9.30;99.90;;;;;;5069527;28;20586;-62
2022/01/30 15:03:31;;;;;;;;;;;9.30;99.90;;;;;;5070289;28;19917;-62
2022/01/30 15:05:57;;;;;;;;;;;9.30;99.90;;;;;;5069221;28;19991;-61
2022/01/30 15:08:22;;;;;;;;;;;9.30;99.90;;;;;;5069184;28;19913;-61
2022/01/30 15:10:48;;;;;;;;;;;9.30;99.90;;;;;;5068962;28;19923;-61
2022/01/30 15:13:14;;;;;;;;;;;9.30;99.90;;;;;;5069393;28;19962;-62
2022/01/30 15:15:40;;;;;;;;;;;9.30;99.90;;;;;;5070335;28;19981;-61
2022/01/30 15:18:15;;;;;;;;;;;9.40;99.90;;;;;;5069889;28;19916;-61
2022/01/30 15:20:43;;;;;;;;;;;9.40;99.90;;;;;;5070355;28;19932;-62
2022/01/30 15:23:08;;;;;;;;;;;9.40;99.90;;;;;;5068853;28;19955;-62
2022/01/30 15:25:34;;;;;;;;;;;9.30;99.50;;;;;;5069048;28;19951;-61
2022/01/30 15:28:00;;;;;;;;;;;9.20;99.90;;;;;;5069052;28;19917;-61
2022/01/30 15:30:25;;;;;;;;;;;9.30;99.90;;;;;;5069040;28;20408;-62
2022/01/30 15:32:51;;;;;;;;;;;9.30;99.90;;;;;;5070907;28;19913;-60